createdAt,value
2016-12-14T00:00:54.680Z,42.26
2016-12-14T00:02:03.678Z,42.55
2016-12-14T00:03:12.406Z,42.26
2016-12-14T00:04:21.415Z,42.46
2016-12-14T00:05:30.719Z,42.55
2016-12-14T00:06:39.746Z,42.46
2016-12-14T00:07:48.450Z,42.46
2016-12-14T00:08:57.439Z,42.36
2016-12-14T00:10:06.440Z,42.46
2016-12-14T00:11:15.467Z,42.55
2016-12-14T00:12:24.213Z,42.55
2016-12-14T00:13:33.538Z,42.46
2016-12-14T00:14:42.252Z,42.26
2016-12-14T00:15:51.291Z,42.55
2016-12-14T00:17:00.603Z,42.55
2016-12-14T00:18:09.294Z,42.26
2016-12-14T00:19:18.678Z,42.46
2016-12-14T00:20:27.667Z,42.46
2016-12-14T00:21:36.974Z,42.46
2016-12-14T00:22:46.025Z,42.46
2016-12-14T00:23:55.335Z,42.46
2016-12-14T00:25:04.079Z,42.46
2016-12-14T00:26:13.067Z,42.46
2016-12-14T00:27:22.066Z,42.36
2016-12-14T00:28:31.069Z,42.36
2016-12-14T00:29:39.753Z,42.26
2016-12-14T00:30:48.758Z,42.46
2016-12-14T00:31:58.681Z,42.55
2016-12-14T00:33:08.307Z,42.46
2016-12-14T00:34:18.288Z,42.46
2016-12-14T00:35:26.966Z,42.46
2016-12-14T00:36:36.281Z,42.36
2016-12-14T00:37:45.582Z,42.36
2016-12-14T00:38:54.598Z,42.55
2016-12-14T00:40:03.605Z,42.36
2016-12-14T00:41:12.295Z,42.36
2016-12-14T00:42:20.995Z,42.26
2016-12-14T00:43:29.694Z,42.46
2016-12-14T00:44:38.390Z,42.46
2016-12-14T00:45:47.730Z,42.36
2016-12-14T00:46:56.410Z,42.46
2016-12-14T00:48:05.414Z,42.26
2016-12-14T00:49:14.222Z,42.26
2016-12-14T00:50:23.215Z,42.36
2016-12-14T00:51:32.206Z,42.46
2016-12-14T00:52:40.912Z,42.36
2016-12-14T00:53:49.941Z,42.36
2016-12-14T00:54:58.706Z,42.46
2016-12-14T00:56:08.016Z,42.55
2016-12-14T00:57:17.018Z,42.46
2016-12-14T00:58:26.025Z,42.26
2016-12-14T00:59:35.356Z,42.07
2016-12-14T01:00:44.043Z,42.36
2016-12-14T01:01:53.047Z,42.07
2016-12-14T01:03:02.664Z,42.36
2016-12-14T01:04:11.668Z,42.36
2016-12-14T01:05:20.710Z,42.46
2016-12-14T01:06:29.402Z,42.36
2016-12-14T01:07:38.408Z,42.26
2016-12-14T01:08:47.112Z,42.26
2016-12-14T01:09:55.799Z,42.16
2016-12-14T01:11:04.817Z,42.36
2016-12-14T01:12:13.514Z,42.36
2016-12-14T01:13:22.238Z,42.36
2016-12-14T01:14:31.262Z,42.26
2016-12-14T01:15:40.583Z,42.36
2016-12-14T01:16:49.912Z,42.07
2016-12-14T01:17:58.907Z,42.55
2016-12-14T01:19:07.596Z,42.16
2016-12-14T01:20:17.203Z,42.26
2016-12-14T01:21:26.212Z,42.36
2016-12-14T01:22:35.188Z,42.07
2016-12-14T01:23:44.493Z,42.36
2016-12-14T01:24:53.495Z,42.26
2016-12-14T01:26:02.815Z,42.36
2016-12-14T01:27:11.499Z,42.36
2016-12-14T01:28:20.847Z,42.26
2016-12-14T01:29:30.466Z,42.55
2016-12-14T01:30:39.795Z,42.36
2016-12-14T01:31:48.489Z,42.26
2016-12-14T01:32:58.094Z,42.26
2016-12-14T01:34:07.413Z,42.46
2016-12-14T01:35:16.415Z,42.26
2016-12-14T01:36:25.710Z,42.55
2016-12-14T01:37:35.012Z,42.16
2016-12-14T01:38:44.316Z,42.26
2016-12-14T01:39:53.601Z,42.36
2016-12-14T01:41:02.595Z,41.97
2016-12-14T01:42:11.895Z,42.36
2016-12-14T01:43:20.574Z,42.16
2016-12-14T01:44:29.559Z,42.16
2016-12-14T01:45:38.253Z,42.16
2016-12-14T01:46:47.546Z,42.07
2016-12-14T01:47:56.541Z,42.55
2016-12-14T01:49:05.532Z,42.07
2016-12-14T01:50:14.514Z,42.55
2016-12-14T01:51:23.513Z,42.16
2016-12-14T01:52:32.237Z,42.36
2016-12-14T01:53:40.939Z,42.07
2016-12-14T01:54:49.614Z,42.46
2016-12-14T01:55:58.612Z,42.26
2016-12-14T01:57:07.601Z,42.36
2016-12-14T01:58:16.905Z,42.46
2016-12-14T01:59:25.901Z,42.46
2016-12-14T02:00:35.813Z,42.36
2016-12-14T02:01:44.811Z,42.36
2016-12-14T02:02:53.511Z,42.46
2016-12-14T02:04:02.809Z,42.36
2016-12-14T02:05:11.482Z,42.26
2016-12-14T02:06:20.768Z,41.97
2016-12-14T02:07:30.393Z,41.97
2016-12-14T02:08:39.383Z,42.36
2016-12-14T02:09:48.687Z,42.46
2016-12-14T02:10:57.701Z,42.46
2016-12-14T02:12:07.313Z,42.46
2016-12-14T02:13:16.315Z,42.46
2016-12-14T02:14:25.602Z,42.55
2016-12-14T02:15:34.917Z,42.36
2016-12-14T02:16:44.247Z,42.46
2016-12-14T02:17:52.943Z,42.36
2016-12-14T02:19:01.628Z,42.46
2016-12-14T02:20:10.611Z,42.36
2016-12-14T02:21:19.596Z,42.36
2016-12-14T02:22:28.892Z,42.46
2016-12-14T02:23:37.893Z,42.46
2016-12-14T02:24:46.889Z,42.46
2016-12-14T02:25:55.869Z,42.36
2016-12-14T02:27:04.559Z,42.55
2016-12-14T02:28:13.554Z,42.46
2016-12-14T02:29:22.224Z,42.46
2016-12-14T02:30:31.221Z,42.55
2016-12-14T02:31:40.243Z,42.46
2016-12-14T02:32:49.235Z,42.46
2016-12-14T02:33:57.930Z,42.46
2016-12-14T02:35:06.673Z,42.46
2016-12-14T02:36:15.382Z,42.46
2016-12-14T02:37:24.082Z,42.46
2016-12-14T02:38:33.377Z,42.46
2016-12-14T02:39:42.364Z,42.46
2016-12-14T02:40:51.367Z,42.46
2016-12-14T02:42:00.972Z,42.46
2016-12-14T02:43:09.689Z,42.46
2016-12-14T02:44:18.366Z,42.26
2016-12-14T02:45:27.369Z,42.46
2016-12-14T02:46:36.678Z,42.16
2016-12-14T02:47:45.383Z,42.26
2016-12-14T02:48:55.293Z,42.26
2016-12-14T02:50:04.610Z,42.55
2016-12-14T02:51:13.898Z,42.26
2016-12-14T02:52:22.602Z,42.26
2016-12-14T02:53:31.591Z,42.26
2016-12-14T02:54:40.287Z,42.26
2016-12-14T02:55:49.289Z,42.16
2016-12-14T02:56:58.624Z,42.26
2016-12-14T02:58:07.307Z,42.55
2016-12-14T02:59:16.027Z,42.16
2016-12-14T03:00:25.018Z,42.16
2016-12-14T03:01:34.312Z,42.26
2016-12-14T03:02:43.601Z,42.36
2016-12-14T03:03:52.904Z,42.36
2016-12-14T03:05:01.602Z,42.26
2016-12-14T03:06:10.598Z,42.16
2016-12-14T03:07:19.596Z,42.26
2016-12-14T03:08:28.281Z,42.36
2016-12-14T03:09:37.278Z,42.16
2016-12-14T03:10:46.869Z,42.26
2016-12-14T03:11:55.856Z,42.16
2016-12-14T03:13:04.856Z,42.26
2016-12-14T03:14:13.847Z,42.36
2016-12-14T03:15:22.857Z,42.36
2016-12-14T03:16:32.457Z,42.36
2016-12-14T03:17:41.755Z,42.36
2016-12-14T03:18:50.753Z,42.36
2016-12-14T03:19:59.752Z,42.36
2016-12-14T03:21:08.481Z,42.26
2016-12-14T03:22:17.160Z,42.26
2016-12-14T03:23:26.156Z,42.26
2016-12-14T03:24:34.852Z,42.26
2016-12-14T03:25:43.547Z,42.26
2016-12-14T03:26:52.234Z,42.26
2016-12-14T03:28:01.253Z,42.36
2016-12-14T03:29:09.934Z,42.36
2016-12-14T03:30:19.239Z,42.36
2016-12-14T03:31:27.922Z,42.26
2016-12-14T03:32:36.663Z,42.26
2016-12-14T03:33:45.401Z,42.16
2016-12-14T03:34:54.392Z,42.36
2016-12-14T03:36:03.999Z,42.26
2016-12-14T03:37:13.028Z,42.16
2016-12-14T03:38:22.345Z,42.16
2016-12-14T03:39:31.335Z,42.16
2016-12-14T03:40:40.935Z,41.97
2016-12-14T03:41:50.266Z,42.16
2016-12-14T03:42:58.952Z,42.16
2016-12-14T03:44:07.945Z,42.07
2016-12-14T03:45:16.635Z,42.16
2016-12-14T03:46:25.319Z,42.26
2016-12-14T03:47:34.029Z,41.97
2016-12-14T03:48:43.014Z,42.26
2016-12-14T03:49:51.707Z,42.26
2016-12-14T03:51:00.409Z,41.97
2016-12-14T03:52:09.737Z,42.16
2016-12-14T03:53:18.719Z,42.16
2016-12-14T03:54:27.709Z,41.97
2016-12-14T03:55:37.001Z,42.07
2016-12-14T03:56:45.987Z,41.88
2016-12-14T03:57:54.670Z,42.07
2016-12-14T03:59:03.968Z,41.88
2016-12-14T04:00:13.269Z,41.78
2016-12-14T04:01:22.256Z,41.97
2016-12-14T04:02:31.572Z,42.36
2016-12-14T04:03:40.587Z,41.88
2016-12-14T04:04:49.912Z,41.88
2016-12-14T04:05:58.592Z,42.16
2016-12-14T04:07:07.578Z,41.88
2016-12-14T04:10:48.937Z,42.07
2016-12-14T04:11:57.616Z,41.78
2016-12-14T04:15:38.977Z,42.07
2016-12-14T04:16:47.967Z,42.46
2016-12-14T04:17:56.635Z,41.88
2016-12-14T04:19:06.272Z,42.07
2016-12-14T04:20:14.972Z,41.88
2016-12-14T04:21:23.657Z,41.78
2016-12-14T04:22:32.648Z,42.16
2016-12-14T04:23:41.658Z,41.88
2016-12-14T04:24:50.647Z,42.16
2016-12-14T04:25:59.394Z,42.07
2016-12-14T04:27:08.391Z,42.07
2016-12-14T04:28:18.002Z,41.88
2016-12-14T04:29:26.998Z,41.88
2016-12-14T04:30:36.304Z,41.88
2016-12-14T04:31:45.611Z,42.07
2016-12-14T04:32:54.296Z,42.07
2016-12-14T04:34:03.615Z,41.78
2016-12-14T04:35:12.302Z,42.16
2016-12-14T04:36:21.311Z,42.36
2016-12-14T04:37:30.910Z,41.88
2016-12-14T04:38:39.655Z,42.07
2016-12-14T04:39:48.726Z,41.88
2016-12-14T04:40:58.664Z,42.16
2016-12-14T04:42:07.703Z,42.07
2016-12-14T04:43:16.690Z,41.97
2016-12-14T04:44:26.036Z,42.07
2016-12-14T04:45:35.332Z,41.88
2016-12-14T04:46:44.041Z,41.88
2016-12-14T04:47:53.326Z,41.88
2016-12-14T04:49:02.629Z,41.88
2016-12-14T04:50:11.651Z,41.88
2016-12-14T04:51:20.658Z,41.88
2016-12-14T04:52:29.647Z,41.88
2016-12-14T04:53:38.973Z,41.88
2016-12-14T04:54:48.279Z,41.88
2016-12-14T04:55:57.282Z,42.07
2016-12-14T04:57:06.324Z,42.07
2016-12-14T04:58:15.347Z,41.88
2016-12-14T04:59:24.334Z,41.88
2016-12-14T05:00:33.684Z,41.88
2016-12-14T05:01:42.686Z,42.26
2016-12-14T05:02:51.969Z,41.78
2016-12-14T05:04:01.030Z,42.16
2016-12-14T05:05:10.073Z,42.16
2016-12-14T05:06:19.704Z,42.14
2016-12-14T05:07:28.717Z,42.26
2016-12-14T05:08:37.488Z,42.16
2016-12-14T05:09:46.801Z,41.78
2016-12-14T05:10:56.444Z,42.26
2016-12-14T05:12:05.490Z,42.16
2016-12-14T05:13:14.488Z,42.14
2016-12-14T05:14:23.170Z,42.26
2016-12-14T05:15:32.513Z,42.16
2016-12-14T05:16:41.534Z,42.16
2016-12-14T05:17:50.266Z,42.26
2016-12-14T05:18:59.261Z,42.24
2016-12-14T05:20:08.870Z,42.07
2016-12-14T05:21:17.867Z,42.26
2016-12-14T05:22:26.585Z,42.26
2016-12-14T05:23:35.878Z,42.26
2016-12-14T05:24:45.194Z,42.26
2016-12-14T05:25:53.974Z,42.26
2016-12-14T05:27:03.368Z,42.16
2016-12-14T05:28:12.361Z,42.26
2016-12-14T05:29:21.696Z,42.26
2016-12-14T05:30:30.695Z,42.24
2016-12-14T05:31:39.848Z,42.16
2016-12-14T05:32:48.547Z,42.26
2016-12-14T05:33:57.545Z,42.26
2016-12-14T05:35:06.269Z,42.16
2016-12-14T05:36:15.260Z,41.97
2016-12-14T05:37:23.957Z,41.97
2016-12-14T05:38:33.255Z,41.88
2016-12-14T05:39:42.254Z,41.49
2016-12-14T05:40:51.247Z,41.68
2016-12-14T05:42:00.341Z,41.88
2016-12-14T05:43:09.053Z,41.59
2016-12-14T05:44:18.364Z,41.3
2016-12-14T05:45:27.666Z,41.11
2016-12-14T05:46:36.714Z,41.13
2016-12-14T05:47:45.714Z,40.94
2016-12-14T05:48:54.402Z,40.55
2016-12-14T05:50:03.703Z,40.74
2016-12-14T05:51:13.018Z,40.55
2016-12-14T05:52:22.006Z,40.55
2016-12-14T05:53:31.317Z,40.47
2016-12-14T05:54:40.039Z,40.66
2016-12-14T05:55:49.976Z,40.37
2016-12-14T05:56:58.670Z,40.37
2016-12-14T05:58:07.685Z,40.47
2016-12-14T05:59:16.690Z,40.37
2016-12-14T06:00:25.380Z,40.47
2016-12-14T06:01:34.382Z,40.19
2016-12-14T06:02:43.058Z,39.89
2016-12-14T06:03:52.045Z,39.79
2016-12-14T06:05:01.032Z,39.7
2016-12-14T06:06:09.743Z,39.89
2016-12-14T06:07:18.727Z,39.99
2016-12-14T06:08:28.342Z,39.7
2016-12-14T06:09:37.648Z,39.82
2016-12-14T06:10:46.635Z,39.53
2016-12-14T06:11:55.962Z,39.24
2016-12-14T06:13:04.975Z,39.53
2016-12-14T06:14:13.955Z,39.53
2016-12-14T06:15:22.949Z,39.43
2016-12-14T06:16:31.654Z,39.14
2016-12-14T06:17:41.350Z,39.04
2016-12-14T06:18:50.405Z,39.04
2016-12-14T06:19:59.476Z,38.97
2016-12-14T06:21:08.466Z,39.34
2016-12-14T06:22:18.086Z,39.45
2016-12-14T06:23:27.399Z,39.45
2016-12-14T06:24:37.018Z,39.26
2016-12-14T06:25:45.709Z,39.06
2016-12-14T06:26:54.715Z,38.97
2016-12-14T06:28:03.415Z,38.87
2016-12-14T06:29:12.749Z,38.68
2016-12-14T06:30:21.751Z,38.78
2016-12-14T06:31:30.752Z,38.68
2016-12-14T06:32:39.759Z,38.39
2016-12-14T06:33:48.748Z,38.1
2016-12-14T06:34:57.439Z,38.21
2016-12-14T06:36:06.436Z,38.21
2016-12-14T06:37:15.758Z,38.41
2016-12-14T06:38:24.753Z,38.51
2016-12-14T06:39:34.043Z,38.6
2016-12-14T06:40:43.049Z,38.12
2016-12-14T06:41:52.659Z,38.21
2016-12-14T06:43:01.665Z,38.12
2016-12-14T06:44:10.387Z,38.12
2016-12-14T06:45:19.077Z,38.02
2016-12-14T06:46:28.457Z,37.93
2016-12-14T06:47:37.463Z,37.93
2016-12-14T06:48:46.166Z,37.63
2016-12-14T06:49:55.190Z,37.75
2016-12-14T06:51:03.874Z,37.75
2016-12-14T06:52:12.555Z,37.65
2016-12-14T06:53:21.968Z,37.85
2016-12-14T06:54:32.656Z,37.65
2016-12-14T06:55:41.681Z,37.75
2016-12-14T06:56:50.764Z,37.85
2016-12-14T06:57:59.544Z,37.65
2016-12-14T06:59:08.850Z,37.65
2016-12-14T07:00:18.167Z,37.65
2016-12-14T07:01:27.150Z,37.85
2016-12-14T07:02:36.457Z,37.65
2016-12-14T07:03:45.486Z,37.65
2016-12-14T07:04:54.857Z,37.75
2016-12-14T07:06:04.086Z,37.75
2016-12-14T07:07:12.899Z,37.75
2016-12-14T07:08:22.378Z,37.85
2016-12-14T07:09:31.152Z,37.95
2016-12-14T07:10:39.854Z,37.85
2016-12-14T07:11:48.588Z,38.14
2016-12-14T07:12:57.581Z,38.04
2016-12-14T07:14:06.652Z,38.23
2016-12-14T07:15:15.653Z,38.43
2016-12-14T07:16:24.958Z,38.62
2016-12-14T07:17:33.648Z,38.23
2016-12-14T07:18:42.327Z,38.43
2016-12-14T07:19:51.622Z,38.43
2016-12-14T07:21:00.616Z,38.23
2016-12-14T07:22:09.319Z,38.43
2016-12-14T07:23:18.011Z,38.71
2016-12-14T07:24:26.713Z,38.53
2016-12-14T07:25:35.716Z,38.62
2016-12-14T07:26:44.398Z,38.81
2016-12-14T07:27:53.399Z,38.71
2016-12-14T07:29:02.395Z,38.99
2016-12-14T07:30:11.084Z,39.09
2016-12-14T07:31:19.786Z,39.47
2016-12-14T07:32:28.474Z,39.37
2016-12-14T07:33:37.797Z,39.18
2016-12-14T07:34:46.486Z,38.89
2016-12-14T07:35:55.183Z,39.66
2016-12-14T07:37:04.181Z,39.57
2016-12-14T07:38:13.474Z,39.37
2016-12-14T07:39:22.771Z,39.66
2016-12-14T07:40:31.776Z,39.47
2016-12-14T07:41:40.454Z,39.57
2016-12-14T07:42:49.785Z,39.76
2016-12-14T07:43:58.782Z,39.86
2016-12-14T07:45:08.468Z,39.76
2016-12-14T07:46:17.170Z,39.84
2016-12-14T07:47:26.476Z,40.05
2016-12-14T07:48:35.156Z,40.12
2016-12-14T07:49:44.344Z,40.12
2016-12-14T07:50:53.350Z,40.61
2016-12-14T07:52:02.332Z,40.51
2016-12-14T07:53:11.339Z,40.32
2016-12-14T07:54:20.025Z,40.42
2016-12-14T07:55:29.020Z,40.42
2016-12-14T07:56:38.014Z,40.42
2016-12-14T07:57:47.613Z,40.42
2016-12-14T07:58:56.613Z,40.22
2016-12-14T08:00:05.624Z,40.42
2016-12-14T08:01:14.302Z,40.61
2016-12-14T08:02:22.992Z,40.7
2016-12-14T08:03:32.004Z,40.7
2016-12-14T08:04:40.681Z,40.51
2016-12-14T08:05:49.678Z,40.51
2016-12-14T08:06:58.671Z,40.7
2016-12-14T08:08:07.970Z,40.7
2016-12-14T08:09:16.678Z,40.7
2016-12-14T08:10:25.976Z,40.51
2016-12-14T08:11:35.296Z,40.61
2016-12-14T08:12:44.278Z,40.51
2016-12-14T08:13:53.309Z,40.61
2016-12-14T08:15:02.312Z,40.9
2016-12-14T08:16:10.999Z,40.7
2016-12-14T08:17:19.689Z,40.61
2016-12-14T08:18:29.008Z,40.61
2016-12-14T08:19:38.333Z,40.51
2016-12-14T08:20:47.333Z,40.97
2016-12-14T08:21:56.031Z,40.78
2016-12-14T08:23:05.367Z,40.78
2016-12-14T08:24:14.680Z,40.88
2016-12-14T08:25:23.386Z,40.97
2016-12-14T08:26:32.077Z,40.88
2016-12-14T08:27:41.080Z,40.88
2016-12-14T08:28:49.805Z,40.88
2016-12-14T08:29:58.494Z,40.97
2016-12-14T08:31:07.518Z,40.88
2016-12-14T08:32:16.215Z,41.17
2016-12-14T08:33:25.199Z,41.27
2016-12-14T08:34:34.221Z,41.17
2016-12-14T08:35:42.912Z,41.27
2016-12-14T08:36:52.515Z,41.27
2016-12-14T08:38:01.513Z,41.36
2016-12-14T08:39:10.521Z,41.36
2016-12-14T08:40:19.836Z,41.36
2016-12-14T08:41:29.146Z,41.27
2016-12-14T08:42:37.836Z,41.36
2016-12-14T08:43:47.162Z,41.46
2016-12-14T08:44:56.476Z,41.36
2016-12-14T08:46:05.768Z,41.36
2016-12-14T08:47:15.061Z,42.13
2016-12-14T08:48:24.360Z,41.55
2016-12-14T08:49:33.396Z,41.75
2016-12-14T08:50:42.697Z,41.84
2016-12-14T08:51:52.615Z,41.84
2016-12-14T08:53:01.292Z,41.75
2016-12-14T08:54:09.980Z,41.75
2016-12-14T08:55:18.978Z,41.65
2016-12-14T08:56:27.971Z,41.65
2016-12-14T08:57:36.971Z,41.55
2016-12-14T08:58:45.659Z,41.55
2016-12-14T08:59:54.978Z,41.65
2016-12-14T09:01:03.982Z,41.84
2016-12-14T09:02:12.976Z,41.84
2016-12-14T09:03:21.956Z,42.03
2016-12-14T09:04:30.948Z,41.75
2016-12-14T09:05:39.933Z,42.03
2016-12-14T09:06:49.227Z,41.84
2016-12-14T09:07:58.820Z,41.84
2016-12-14T09:09:07.843Z,41.84
2016-12-14T09:10:16.842Z,41.55
2016-12-14T09:11:25.582Z,42.03
2016-12-14T09:12:34.902Z,41.94
2016-12-14T09:13:44.205Z,41.65
2016-12-14T09:14:53.494Z,41.65
2016-12-14T09:16:02.501Z,41.65
2016-12-14T09:17:12.116Z,42.03
2016-12-14T09:18:21.138Z,42.02
2016-12-14T09:19:29.883Z,41.84
2016-12-14T09:20:39.211Z,41.94
2016-12-14T09:21:48.556Z,41.65
2016-12-14T09:22:58.188Z,41.84
2016-12-14T09:24:07.189Z,41.94
2016-12-14T09:25:16.186Z,41.65
2016-12-14T09:26:24.904Z,41.84
2016-12-14T09:27:34.217Z,41.65
2016-12-14T09:28:43.218Z,41.75
2016-12-14T09:29:51.907Z,42.03
2016-12-14T09:31:00.609Z,41.94
2016-12-14T09:32:10.221Z,41.63
2016-12-14T09:33:19.528Z,41.75
2016-12-14T09:34:28.503Z,41.84
2016-12-14T09:35:37.797Z,41.65
2016-12-14T09:36:46.484Z,41.65
2016-12-14T09:37:55.183Z,41.84
2016-12-14T09:39:04.212Z,41.84
2016-12-14T09:40:13.367Z,41.75
2016-12-14T09:41:23.037Z,41.65
2016-12-14T09:42:31.719Z,41.75
2016-12-14T09:43:41.035Z,41.55
2016-12-14T09:44:49.738Z,41.65
2016-12-14T09:45:58.728Z,41.75
2016-12-14T09:47:07.740Z,41.75
2016-12-14T09:48:16.726Z,41.65
2016-12-14T09:49:25.712Z,41.75
2016-12-14T09:50:34.708Z,42.23
2016-12-14T09:51:43.735Z,41.94
2016-12-14T09:52:53.050Z,41.92
2016-12-14T09:54:01.749Z,41.63
2016-12-14T09:55:10.453Z,41.82
2016-12-14T09:56:19.775Z,41.92
2016-12-14T09:57:29.085Z,41.82
2016-12-14T09:58:38.688Z,42.11
2016-12-14T09:59:47.999Z,41.72
2016-12-14T10:00:56.992Z,42.11
2016-12-14T10:02:06.001Z,41.53
2016-12-14T10:03:14.705Z,41.92
2016-12-14T10:04:23.729Z,42.02
2016-12-14T10:05:32.414Z,42.02
2016-12-14T10:06:41.398Z,42.02
2016-12-14T10:07:50.119Z,41.82
2016-12-14T10:08:59.118Z,41.92
2016-12-14T10:10:08.150Z,41.92
2016-12-14T10:11:17.449Z,41.92
2016-12-14T10:12:26.157Z,42.11
2016-12-14T10:13:35.481Z,42.21
2016-12-14T10:14:44.509Z,41.92
2016-12-14T10:15:53.513Z,42.21
2016-12-14T10:17:02.528Z,42.11
2016-12-14T10:18:11.553Z,41.92
2016-12-14T10:19:20.567Z,41.92
2016-12-14T10:20:29.273Z,42.11
2016-12-14T10:21:38.566Z,42.02
2016-12-14T10:22:47.872Z,42.3
2016-12-14T10:23:56.862Z,42.02
2016-12-14T10:25:05.590Z,42.21
2016-12-14T10:26:14.595Z,42.11
2016-12-14T10:27:23.658Z,42.21
2016-12-14T10:28:32.654Z,41.53
2016-12-14T10:29:41.643Z,42.11
2016-12-14T10:30:50.329Z,42.02
2016-12-14T10:31:59.314Z,42.11
2016-12-14T10:33:08.307Z,41.72
2016-12-14T10:34:17.312Z,41.63
2016-12-14T10:35:26.334Z,41.82
2016-12-14T10:36:35.651Z,41.92
2016-12-14T10:37:44.352Z,41.92
2016-12-14T10:38:53.395Z,42.02
2016-12-14T10:40:02.081Z,41.82
2016-12-14T10:41:11.393Z,41.92
2016-12-14T10:42:20.072Z,41.92
2016-12-14T10:43:29.067Z,42.02
2016-12-14T10:44:37.753Z,41.72
2016-12-14T10:45:47.680Z,41.63
2016-12-14T10:46:56.979Z,42.11
2016-12-14T10:48:06.290Z,42.02
2016-12-14T10:49:15.039Z,41.82
2016-12-14T10:50:24.044Z,41.72
2016-12-14T10:51:33.031Z,42.02
2016-12-14T10:52:41.747Z,42.3
2016-12-14T10:53:50.745Z,41.92
2016-12-14T10:54:59.425Z,42.02
2016-12-14T10:56:08.730Z,41.82
2016-12-14T10:57:17.721Z,41.92
2016-12-14T10:58:26.720Z,41.82
2016-12-14T10:59:35.704Z,42.21
2016-12-14T11:00:44.408Z,41.82
2016-12-14T11:01:53.095Z,41.63
2016-12-14T11:03:02.120Z,42.3
2016-12-14T11:04:11.113Z,41.92
2016-12-14T11:05:19.818Z,42.11
2016-12-14T11:06:28.815Z,42.02
2016-12-14T11:07:38.128Z,42.02
2016-12-14T11:08:46.816Z,41.72
2016-12-14T11:09:55.535Z,42.02
2016-12-14T11:11:04.570Z,42.11
2016-12-14T11:12:13.569Z,42.02
2016-12-14T11:13:22.898Z,41.82
2016-12-14T11:14:31.590Z,41.92
2016-12-14T11:15:40.884Z,42.21
2016-12-14T11:16:49.894Z,41.63
2016-12-14T11:17:58.593Z,41.92
2016-12-14T11:19:07.595Z,41.92
2016-12-14T11:20:16.616Z,41.82
2016-12-14T11:21:25.307Z,41.82
2016-12-14T11:22:33.999Z,41.92
2016-12-14T11:23:43.313Z,42.02
2016-12-14T11:24:52.699Z,41.92
2016-12-14T11:26:01.688Z,41.92
2016-12-14T11:27:10.981Z,41.92
2016-12-14T11:28:20.004Z,41.92
2016-12-14T11:29:28.751Z,41.82
2016-12-14T11:30:38.056Z,42.3
2016-12-14T11:31:47.056Z,42.21
2016-12-14T11:32:56.049Z,41.82
2016-12-14T11:34:05.037Z,41.63
2016-12-14T11:35:14.330Z,41.72
2016-12-14T11:36:23.317Z,41.72
2016-12-14T11:37:32.599Z,41.82
2016-12-14T11:38:41.275Z,41.82
2016-12-14T11:39:50.012Z,41.82
2016-12-14T11:40:58.706Z,42.21
2016-12-14T11:42:07.392Z,41.82
2016-12-14T11:43:16.095Z,42.11
2016-12-14T11:44:25.411Z,42.02
2016-12-14T11:45:34.719Z,42.02
2016-12-14T11:46:43.408Z,42.02
2016-12-14T11:47:52.709Z,42.21
2016-12-14T11:49:01.711Z,41.53
2016-12-14T11:50:10.710Z,41.92
2016-12-14T11:51:20.011Z,42.02
2016-12-14T11:52:29.312Z,42.11
2016-12-14T11:53:38.305Z,42.02
2016-12-14T11:54:47.931Z,41.92
2016-12-14T11:55:56.624Z,41.92
2016-12-14T11:57:06.232Z,42.21
2016-12-14T11:58:15.226Z,42.21
2016-12-14T11:59:23.906Z,42.11
2016-12-14T12:00:32.594Z,42.11
2016-12-14T12:01:41.583Z,42.11
2016-12-14T12:02:50.293Z,42.02
2016-12-14T12:03:59.586Z,42.02
2016-12-14T12:05:08.593Z,41.72
2016-12-14T12:06:17.587Z,41.92
2016-12-14T12:07:26.946Z,41.82
2016-12-14T12:08:35.631Z,42.02
2016-12-14T12:09:44.320Z,42.02
2016-12-14T12:10:53.932Z,41.92
2016-12-14T12:12:02.929Z,42.02
2016-12-14T12:13:11.616Z,42.11
2016-12-14T12:14:20.605Z,42.11
2016-12-14T12:15:29.607Z,41.92
2016-12-14T12:16:38.292Z,41.53
2016-12-14T12:17:47.283Z,41.92
2016-12-14T12:18:56.576Z,42.02
2016-12-14T12:20:05.865Z,42.3
2016-12-14T12:21:14.864Z,42.02
2016-12-14T12:22:23.865Z,42.02
2016-12-14T12:23:33.171Z,42.11
2016-12-14T12:24:42.176Z,42.11
2016-12-14T12:25:51.472Z,42.21
2016-12-14T12:27:00.466Z,42.21
2016-12-14T12:28:09.165Z,42.02
2016-12-14T12:29:18.473Z,42.21
2016-12-14T12:30:28.398Z,41.72
2016-12-14T12:31:37.085Z,42.11
2016-12-14T12:32:46.694Z,41.63
2016-12-14T12:33:55.377Z,41.72
2016-12-14T12:35:04.377Z,41.82
2016-12-14T12:36:13.136Z,41.92
2016-12-14T12:37:22.136Z,41.72
2016-12-14T12:38:30.840Z,41.72
2016-12-14T12:39:40.129Z,42.02
2016-12-14T12:40:49.737Z,42.11
2016-12-14T12:41:59.038Z,41.72
2016-12-14T12:43:08.029Z,41.72
2016-12-14T12:44:17.051Z,41.72
2016-12-14T12:45:26.034Z,41.63
2016-12-14T12:46:34.708Z,41.63
2016-12-14T12:47:43.751Z,41.63
2016-12-14T12:48:52.430Z,41.92
2016-12-14T12:50:01.103Z,42.3
2016-12-14T12:51:10.399Z,41.82
2016-12-14T12:52:19.090Z,41.92
2016-12-14T12:53:28.394Z,42.02
2016-12-14T12:54:37.086Z,41.92
2016-12-14T12:55:46.717Z,41.92
2016-12-14T12:56:56.022Z,41.92
2016-12-14T12:58:05.021Z,42.02
2016-12-14T12:59:14.033Z,42.21
2016-12-14T13:00:23.037Z,41.92
2016-12-14T13:01:32.352Z,41.63
2016-12-14T13:02:41.382Z,41.82
2016-12-14T13:03:50.389Z,41.92
2016-12-14T13:04:59.090Z,41.92
2016-12-14T13:06:08.390Z,41.82
2016-12-14T13:07:17.088Z,41.82
2016-12-14T13:08:26.099Z,41.82
2016-12-14T13:09:35.412Z,41.92
2016-12-14T13:10:44.107Z,42.02
2016-12-14T13:11:53.105Z,41.92
2016-12-14T13:13:02.105Z,42.11
2016-12-14T13:14:11.427Z,41.92
2016-12-14T13:15:20.111Z,42.02
2016-12-14T13:16:28.844Z,42.02
2016-12-14T13:17:38.145Z,41.92
2016-12-14T13:18:47.445Z,41.92
2016-12-14T13:19:56.442Z,41.92
2016-12-14T13:21:05.120Z,41.92
2016-12-14T13:22:14.421Z,42.02
2016-12-14T13:23:23.113Z,41.92
2016-12-14T13:24:31.808Z,42.02
2016-12-14T13:25:40.818Z,41.82
2016-12-14T13:26:49.811Z,41.82
2016-12-14T13:27:58.801Z,41.72
2016-12-14T13:29:07.827Z,41.92
2016-12-14T13:30:16.513Z,42.02
2016-12-14T13:31:25.808Z,41.63
2016-12-14T13:32:34.785Z,42.3
2016-12-14T13:33:43.799Z,41.72
2016-12-14T13:34:52.505Z,41.63
2016-12-14T13:36:01.196Z,41.92
2016-12-14T13:37:10.513Z,41.82
2016-12-14T13:38:19.197Z,41.72
2016-12-14T13:39:28.196Z,41.72
2016-12-14T13:40:36.899Z,41.72
2016-12-14T13:41:45.883Z,41.8
2016-12-14T13:42:54.896Z,42.11
2016-12-14T13:44:03.613Z,41.99
2016-12-14T13:45:12.603Z,42.21
2016-12-14T13:46:21.293Z,42.19
2016-12-14T13:47:30.606Z,41.61
2016-12-14T13:48:39.591Z,42.19
2016-12-14T13:49:48.568Z,42.19
2016-12-14T13:50:58.177Z,41.99
2016-12-14T13:52:07.167Z,41.92
2016-12-14T13:53:16.460Z,41.71
2016-12-14T13:54:25.753Z,42.09
2016-12-14T13:55:34.443Z,41.82
2016-12-14T13:56:43.776Z,41.8
2016-12-14T13:57:52.479Z,42.3
2016-12-14T13:59:01.484Z,42.19
2016-12-14T14:00:10.152Z,42.09
2016-12-14T14:01:18.850Z,41.99
2016-12-14T14:02:27.851Z,42.11
2016-12-14T14:03:36.536Z,42.09
2016-12-14T14:04:45.560Z,41.99
2016-12-14T14:05:54.252Z,41.89
2016-12-14T14:07:02.960Z,42.09
2016-12-14T14:08:11.945Z,42.09
2016-12-14T14:09:20.944Z,42.09
2016-12-14T14:10:30.246Z,42.09
2016-12-14T14:11:39.539Z,41.89
2016-12-14T14:12:48.555Z,41.99
2016-12-14T14:13:57.546Z,42.09
2016-12-14T14:15:06.238Z,42.09
2016-12-14T14:16:15.234Z,42.09
2016-12-14T14:17:23.942Z,41.8
2016-12-14T14:18:33.252Z,41.89
2016-12-14T14:19:41.956Z,42.09
2016-12-14T14:20:50.958Z,41.89
2016-12-14T14:21:59.659Z,41.89
2016-12-14T14:23:08.647Z,41.89
2016-12-14T14:24:17.954Z,41.99
2016-12-14T14:25:27.017Z,41.8
2016-12-14T14:26:36.003Z,42.09
2016-12-14T14:27:44.998Z,41.8
2016-12-14T14:28:53.684Z,41.89
2016-12-14T14:30:02.689Z,41.89
2016-12-14T14:31:11.697Z,41.89
2016-12-14T14:32:20.380Z,42.09
2016-12-14T14:33:29.087Z,41.89
2016-12-14T14:34:38.699Z,41.89
2016-12-14T14:35:48.320Z,41.89
2016-12-14T14:36:57.309Z,42.09
2016-12-14T14:38:06.294Z,41.99
2016-12-14T14:39:15.296Z,41.99
2016-12-14T14:40:24.609Z,41.99
2016-12-14T14:41:33.918Z,41.99
2016-12-14T14:42:43.845Z,41.89
2016-12-14T14:43:53.142Z,41.89
2016-12-14T14:45:03.123Z,41.89
2016-12-14T14:46:12.428Z,41.89
2016-12-14T14:47:21.735Z,41.99
2016-12-14T14:48:31.099Z,42.09
2016-12-14T14:49:40.102Z,42.19
2016-12-14T14:50:49.200Z,41.99
2016-12-14T14:51:57.884Z,41.99
2016-12-14T14:53:06.578Z,42.09
2016-12-14T14:54:15.567Z,41.99
2016-12-14T14:55:24.577Z,41.99